createdAt,value
2018-12-30T00:01:13.753Z,3.80
2018-12-30T00:03:44.826Z,4.05
2018-12-30T00:06:15.632Z,4.17
2018-12-30T00:08:46.385Z,4.20
2018-12-30T00:11:16.771Z,4.19
2018-12-30T00:13:46.971Z,4.31
2018-12-30T00:16:17.273Z,4.26
2018-12-30T00:18:49.479Z,4.23
2018-12-30T00:21:19.963Z,4.31
2018-12-30T00:23:50.223Z,4.38
2018-12-30T00:26:20.485Z,4.27
2018-12-30T00:28:50.762Z,3.68
2018-12-30T00:31:21.233Z,3.56
2018-12-30T00:33:51.399Z,3.96
2018-12-30T00:36:21.563Z,4.14
2018-12-30T00:38:51.833Z,4.22
2018-12-30T00:41:22.145Z,4.25
2018-12-30T00:43:52.333Z,4.16
2018-12-30T00:49:19.466Z,4.19
2018-12-30T00:51:49.914Z,4.11
2018-12-30T00:54:20.147Z,4.14
2018-12-30T00:56:50.396Z,4.09
2018-12-30T00:59:20.677Z,4.13
2018-12-30T01:01:50.869Z,4.09
2018-12-30T01:04:21.149Z,4.10
2018-12-30T01:06:51.430Z,4.17
2018-12-30T01:09:21.679Z,3.84
2018-12-30T01:11:51.877Z,2.79
2018-12-30T01:14:22.112Z,2.55
2018-12-30T01:16:52.587Z,2.86
2018-12-30T01:19:22.799Z,3.02
2018-12-30T01:21:52.976Z,3.01
2018-12-30T01:24:23.224Z,3.15
2018-12-30T01:26:53.453Z,3.19
2018-12-30T01:29:23.684Z,3.16
2018-12-30T01:31:53.968Z,3.13
2018-12-30T01:34:24.169Z,3.11
2018-12-30T01:36:54.392Z,3.11
2018-12-30T01:39:24.601Z,3.12
2018-12-30T01:41:54.873Z,3.16
2018-12-30T01:44:25.167Z,3.03
2018-12-30T01:46:55.371Z,2.92
2018-12-30T01:49:26.064Z,2.93
2018-12-30T01:51:56.461Z,2.85
2018-12-30T01:54:26.869Z,2.84
2018-12-30T01:56:57.157Z,2.79
2018-12-30T01:59:27.459Z,2.83
2018-12-30T02:01:57.758Z,2.63
2018-12-30T02:04:28.296Z,2.77
2018-12-30T02:06:58.518Z,2.83
2018-12-30T02:09:28.721Z,2.85
2018-12-30T02:11:58.902Z,2.84
2018-12-30T02:14:29.171Z,2.77
2018-12-30T02:16:59.487Z,2.77
2018-12-30T02:19:29.792Z,2.79
2018-12-30T02:21:59.987Z,2.76
2018-12-30T02:24:30.234Z,2.67
2018-12-30T02:27:00.518Z,2.68
2018-12-30T02:29:30.729Z,1.82
2018-12-30T02:32:00.903Z,1.77
2018-12-30T02:34:31.139Z,2.18
2018-12-30T02:37:01.478Z,1.43
2018-12-30T02:39:31.741Z,1.26
2018-12-30T02:42:01.926Z,1.72
2018-12-30T02:44:32.165Z,1.86
2018-12-30T02:47:02.397Z,1.08
2018-12-30T02:49:32.732Z,0.66
2018-12-30T02:52:03.164Z,1.06
2018-12-30T02:54:33.415Z,1.37
2018-12-30T02:57:03.628Z,1.31
2018-12-30T02:59:33.867Z,1.17
2018-12-30T03:02:04.394Z,1.29
2018-12-30T03:04:34.637Z,1.71
2018-12-30T03:07:05.336Z,1.84
2018-12-30T03:09:36.356Z,1.32
2018-12-30T03:12:07.122Z,1.72
2018-12-30T03:14:38.423Z,1.85
2018-12-30T03:17:08.630Z,1.86
2018-12-30T03:19:38.880Z,1.88
2018-12-30T03:22:09.141Z,1.85
2018-12-30T03:24:39.370Z,1.80
2018-12-30T03:27:09.589Z,1.87
2018-12-30T03:29:39.836Z,1.85
2018-12-30T03:32:10.177Z,1.86
2018-12-30T03:34:40.417Z,1.82
2018-12-30T03:37:10.664Z,1.86
2018-12-30T03:39:40.911Z,1.83
2018-12-30T03:42:11.226Z,1.79
2018-12-30T03:44:41.494Z,1.81
2018-12-30T03:47:11.732Z,1.75
2018-12-30T03:49:42.169Z,1.75
2018-12-30T03:52:12.560Z,1.77
2018-12-30T03:54:42.940Z,1.81
2018-12-30T03:57:13.251Z,1.77
2018-12-30T03:59:43.612Z,1.75
2018-12-30T04:02:13.921Z,1.77
2018-12-30T04:04:44.165Z,1.76
2018-12-30T04:07:16.554Z,1.70
2018-12-30T04:09:46.849Z,1.67
2018-12-30T04:12:17.352Z,1.73
2018-12-30T04:14:47.561Z,1.72
2018-12-30T04:17:17.849Z,1.73
2018-12-30T04:19:48.049Z,1.68
2018-12-30T04:22:18.239Z,1.18
2018-12-30T04:24:48.522Z,0.90
2018-12-30T04:27:18.874Z,0.66
2018-12-30T04:29:49.220Z,0.72
2018-12-30T04:32:19.427Z,0.66
2018-12-30T04:34:49.669Z,1.02
2018-12-30T04:37:19.990Z,1.01
2018-12-30T04:39:50.236Z,1.08
2018-12-30T04:42:20.444Z,1.10
2018-12-30T04:44:50.698Z,1.10
2018-12-30T04:47:20.922Z,1.16
2018-12-30T04:49:51.839Z,1.23
2018-12-30T04:52:25.737Z,1.19
2018-12-30T04:54:54.313Z,1.23
2018-12-30T04:57:24.511Z,1.32
2018-12-30T04:59:54.838Z,1.41
2018-12-30T05:02:25.130Z,1.55
2018-12-30T05:04:55.357Z,1.62
2018-12-30T05:07:25.530Z,1.80
2018-12-30T05:09:55.744Z,1.89
2018-12-30T05:12:26.011Z,1.85
2018-12-30T05:14:56.264Z,2.02
2018-12-30T05:17:26.441Z,2.04
2018-12-30T05:19:56.661Z,1.91
2018-12-30T05:22:33.838Z,1.64
2018-12-30T05:24:59.021Z,1.52
2018-12-30T05:27:29.555Z,1.37
2018-12-30T05:29:59.772Z,1.32
2018-12-30T05:32:29.984Z,1.33
2018-12-30T05:35:00.254Z,1.30
2018-12-30T05:37:30.550Z,1.39
2018-12-30T05:40:00.786Z,1.33
2018-12-30T05:42:30.976Z,1.34
2018-12-30T05:45:01.255Z,1.39
2018-12-30T05:47:31.545Z,1.09
2018-12-30T05:50:01.794Z,1.08
2018-12-30T05:52:31.958Z,1.25
2018-12-30T05:55:02.261Z,1.21
2018-12-30T05:57:32.600Z,1.23
2018-12-30T06:00:02.909Z,1.18
2018-12-30T06:02:33.211Z,1.14
2018-12-30T06:05:03.458Z,1.19
2018-12-30T06:13:05.869Z,1.33
2018-12-30T06:15:36.205Z,1.39
2018-12-30T06:21:04.289Z,1.53
2018-12-30T06:23:34.743Z,1.59
2018-12-30T06:26:04.964Z,1.78
2018-12-30T06:28:35.156Z,2.06
2018-12-30T06:31:05.463Z,2.27
2018-12-30T06:33:35.794Z,2.38
2018-12-30T06:36:05.976Z,2.49
2018-12-30T06:41:25.621Z,2.68
2018-12-30T06:43:56.033Z,2.76
2018-12-30T06:49:21.435Z,3.44
2018-12-30T06:51:51.832Z,3.68
2018-12-30T06:54:22.008Z,3.77
2018-12-30T06:56:52.306Z,3.96
2018-12-30T06:59:22.586Z,4.45
2018-12-30T07:01:52.758Z,4.59
2018-12-30T07:04:22.945Z,4.84
2018-12-30T07:06:53.209Z,4.96
2018-12-30T07:09:23.456Z,5.17
2018-12-30T07:24:36.450Z,6.96
2018-12-30T07:30:47.430Z,6.84
2018-12-30T07:33:37.744Z,6.55
2018-12-30T07:36:28.613Z,6.62
2018-12-30T07:39:17.844Z,7.01
2018-12-30T07:47:39.501Z,8.16
2018-12-30T07:50:10.466Z,8.59
2018-12-30T07:52:40.987Z,9.32
2018-12-30T07:55:11.395Z,9.65
2018-12-30T07:57:42.553Z,9.50
2018-12-30T08:00:12.802Z,9.42
2018-12-30T08:02:42.974Z,9.17
2018-12-30T08:05:13.158Z,9.29
2018-12-30T08:07:43.428Z,9.42
2018-12-30T08:10:13.714Z,9.07
2018-12-30T08:12:43.963Z,9.72
2018-12-30T08:15:14.122Z,9.27
2018-12-30T08:17:44.384Z,8.70
2018-12-30T08:20:14.669Z,8.98
2018-12-30T08:22:52.326Z,9.15
2018-12-30T08:27:58.392Z,9.68
2018-12-30T08:30:28.691Z,9.81
2018-12-30T08:32:59.013Z,10.13
2018-12-30T08:35:29.273Z,10.48
2018-12-30T08:37:59.494Z,10.61
2018-12-30T08:40:29.656Z,10.67
2018-12-30T08:42:59.883Z,11.01
2018-12-30T08:45:30.161Z,11.10
2018-12-30T08:48:00.367Z,11.00
2018-12-30T08:50:30.549Z,11.53
2018-12-30T08:53:00.773Z,11.22
2018-12-30T08:55:31.142Z,12.30
2018-12-30T08:58:01.357Z,13.38
2018-12-30T09:00:31.554Z,13.60
2018-12-30T09:03:01.812Z,13.15
2018-12-30T09:05:32.108Z,12.91
2018-12-30T09:08:02.386Z,13.06
2018-12-30T09:10:32.644Z,13.23
2018-12-30T09:13:02.915Z,13.44
2018-12-30T09:15:33.172Z,13.35
2018-12-30T09:18:04.048Z,13.94
2018-12-30T09:20:34.346Z,15.03
2018-12-30T09:23:04.622Z,16.15
2018-12-30T09:25:35.018Z,15.99
2018-12-30T09:28:05.436Z,15.39
2018-12-30T09:30:35.621Z,14.96
2018-12-30T09:33:05.848Z,14.56
2018-12-30T09:35:36.228Z,14.52
2018-12-30T09:38:06.436Z,15.16
2018-12-30T09:40:36.592Z,16.17
2018-12-30T09:43:06.803Z,15.91
2018-12-30T09:45:37.076Z,18.00
2018-12-30T09:48:07.288Z,16.59
2018-12-30T09:50:40.299Z,18.21
2018-12-30T09:53:10.500Z,18.86
2018-12-30T09:55:40.675Z,17.92
2018-12-30T09:58:10.899Z,17.66
2018-12-30T10:00:41.237Z,17.27
2018-12-30T10:03:11.459Z,16.43
2018-12-30T10:05:41.616Z,15.93
2018-12-30T10:08:11.856Z,15.39
2018-12-30T10:10:42.136Z,15.08
2018-12-30T10:13:12.390Z,15.41
2018-12-30T10:15:43.679Z,13.92
2018-12-30T10:18:13.891Z,14.23
2018-12-30T10:20:44.126Z,14.19
2018-12-30T10:23:14.313Z,14.03
2018-12-30T10:25:44.486Z,13.16
2018-12-30T10:28:14.839Z,13.46
2018-12-30T10:30:45.583Z,13.37
2018-12-30T10:33:15.790Z,13.64
2018-12-30T10:35:46.126Z,12.15
2018-12-30T10:38:16.438Z,12.47
2018-12-30T10:40:46.598Z,12.45
2018-12-30T10:43:16.803Z,12.36
2018-12-30T10:45:47.102Z,12.34
2018-12-30T10:48:17.303Z,13.00
2018-12-30T10:50:47.541Z,11.92
2018-12-30T10:53:17.772Z,12.85
2018-12-30T10:55:48.035Z,13.90
2018-12-30T10:58:18.253Z,13.87
2018-12-30T11:00:48.427Z,14.27
2018-12-30T11:03:18.643Z,13.73
2018-12-30T11:05:48.914Z,13.87
2018-12-30T11:11:18.407Z,14.00
2018-12-30T11:13:48.610Z,13.88
2018-12-30T11:16:18.740Z,13.07
2018-12-30T11:18:48.974Z,13.15
2018-12-30T11:21:19.241Z,12.99
2018-12-30T11:23:49.444Z,12.97
2018-12-30T11:26:19.690Z,12.63
2018-12-30T11:28:49.896Z,12.44
2018-12-30T11:31:20.153Z,12.06
2018-12-30T11:33:50.354Z,11.52
2018-12-30T11:36:20.536Z,11.00
2018-12-30T11:38:50.785Z,11.30
2018-12-30T11:41:21.048Z,11.17
2018-12-30T11:43:51.278Z,10.96
2018-12-30T11:46:21.444Z,11.08
2018-12-30T11:48:51.697Z,11.08
2018-12-30T11:51:57.996Z,11.20
2018-12-30T11:54:28.608Z,11.01
2018-12-30T11:56:58.875Z,11.32
2018-12-30T11:59:29.155Z,11.10
2018-12-30T12:01:59.721Z,10.88
2018-12-30T12:07:33.607Z,11.30
2018-12-30T12:10:24.550Z,11.82
2018-12-30T12:16:13.244Z,12.14
2018-12-30T12:24:54.422Z,12.89
2018-12-30T12:30:34.107Z,11.99
2018-12-30T12:33:04.322Z,11.39
2018-12-30T12:35:34.490Z,11.26
2018-12-30T12:38:04.654Z,11.55
2018-12-30T12:40:34.919Z,11.77
2018-12-30T12:43:05.183Z,11.96
2018-12-30T12:45:35.367Z,11.96
2018-12-30T13:00:03.272Z,11.43
2018-12-30T13:02:57.487Z,11.26
2018-12-30T13:05:44.955Z,11.48
2018-12-30T13:08:30.400Z,11.21
2018-12-30T13:16:32.714Z,10.82
2018-12-30T13:19:03.076Z,10.41
2018-12-30T13:21:33.329Z,10.36
2018-12-30T13:24:03.480Z,10.37
2018-12-30T13:26:33.637Z,10.40
2018-12-30T13:29:03.923Z,10.32
2018-12-30T13:31:34.170Z,10.45
2018-12-30T13:34:04.340Z,10.57
2018-12-30T13:36:34.516Z,10.49
2018-12-30T13:39:05.897Z,10.71
2018-12-30T13:41:36.086Z,10.87
2018-12-30T13:44:06.438Z,11.36
2018-12-30T13:50:13.731Z,12.25
2018-12-30T13:56:02.588Z,13.25
2018-12-30T14:04:24.127Z,11.82
2018-12-30T14:06:54.483Z,11.76
2018-12-30T14:09:24.665Z,11.69
2018-12-30T14:11:54.855Z,11.47
2018-12-30T14:14:25.121Z,11.35
2018-12-30T14:16:55.370Z,11.12
2018-12-30T14:19:25.559Z,10.95
2018-12-30T14:21:55.751Z,10.94
2018-12-30T14:24:26.008Z,10.93
2018-12-30T14:27:00.040Z,10.86
2018-12-30T14:29:28.465Z,10.79
2018-12-30T14:31:58.847Z,10.56
2018-12-30T14:34:29.009Z,10.49
2018-12-30T14:42:31.253Z,10.03
2018-12-30T14:45:01.532Z,10.10
2018-12-30T14:47:31.701Z,10.03
2018-12-30T14:50:02.001Z,9.82
2018-12-30T14:52:32.277Z,9.72
2018-12-30T14:55:03.783Z,9.59
2018-12-30T14:57:34.572Z,9.33
2018-12-30T15:03:04.386Z,8.93
2018-12-30T15:05:34.658Z,8.72
2018-12-30T15:08:04.922Z,8.68
2018-12-30T15:10:35.137Z,8.24
2018-12-30T15:13:05.700Z,8.63
2018-12-30T15:15:35.917Z,8.63
2018-12-30T15:18:06.061Z,8.75
2018-12-30T15:20:36.273Z,8.78
2018-12-30T15:23:06.540Z,8.69
2018-12-30T15:25:36.740Z,8.67
2018-12-30T15:28:06.920Z,8.42
2018-12-30T15:30:37.164Z,8.13
2018-12-30T15:33:07.505Z,8.37
2018-12-30T15:35:37.725Z,8.45
2018-12-30T15:38:07.903Z,8.40
2018-12-30T15:40:38.125Z,8.29
2018-12-30T15:43:08.387Z,8.18
2018-12-30T15:45:38.599Z,8.16
2018-12-30T15:48:08.769Z,8.21
2018-12-30T15:50:39.072Z,8.24
2018-12-30T15:53:09.297Z,8.05
2018-12-30T15:55:39.547Z,7.96
2018-12-30T15:58:09.815Z,7.82
2018-12-30T16:00:39.993Z,7.53
2018-12-30T16:05:45.831Z,7.24
2018-12-30T16:08:16.338Z,6.75
2018-12-30T16:10:46.694Z,7.08
2018-12-30T16:13:16.882Z,6.53
2018-12-30T16:15:47.085Z,6.39
2018-12-30T16:18:17.351Z,6.82
2018-12-30T16:20:47.634Z,7.19
2018-12-30T16:23:17.841Z,7.36
2018-12-30T16:25:48.040Z,7.38
2018-12-30T16:28:18.392Z,7.35
2018-12-30T16:30:48.677Z,7.35
2018-12-30T16:33:18.908Z,7.28
2018-12-30T16:35:49.164Z,6.88
2018-12-30T16:38:19.362Z,6.28
2018-12-30T16:40:49.543Z,6.55
2018-12-30T16:43:19.824Z,6.83
2018-12-30T16:45:50.089Z,7.03
2018-12-30T16:48:20.258Z,6.77
2018-12-30T16:50:50.423Z,6.84
2018-12-30T16:53:20.707Z,6.88
2018-12-30T16:55:51.041Z,7.00
2018-12-30T16:58:21.227Z,7.00
2018-12-30T17:00:51.427Z,6.84
2018-12-30T17:03:21.792Z,6.90
2018-12-30T17:05:52.180Z,6.97
2018-12-30T17:08:22.472Z,6.94
2018-12-30T17:13:49.078Z,6.98
2018-12-30T17:16:19.488Z,7.06
2018-12-30T17:18:55.909Z,7.01
2018-12-30T17:21:21.937Z,6.99
2018-12-30T17:23:52.343Z,6.95
2018-12-30T17:26:24.981Z,6.82
2018-12-30T17:28:55.203Z,6.51
2018-12-30T17:31:25.481Z,6.55
2018-12-30T17:33:55.838Z,6.68
2018-12-30T17:36:26.018Z,6.74
2018-12-30T17:38:56.219Z,6.78
2018-12-30T17:41:26.486Z,6.77
2018-12-30T17:43:56.766Z,6.79
2018-12-30T17:46:26.962Z,6.79
2018-12-30T17:48:57.147Z,5.37
2018-12-30T17:51:27.432Z,6.71
2018-12-30T17:53:57.712Z,6.54
2018-12-30T17:56:27.908Z,6.65
2018-12-30T17:58:58.176Z,6.55
2018-12-30T18:01:28.351Z,6.61
2018-12-30T18:03:58.549Z,6.54
2018-12-30T18:06:28.817Z,6.64
2018-12-30T18:08:59.071Z,6.72
2018-12-30T18:11:29.329Z,6.71
2018-12-30T18:13:59.538Z,6.77
2018-12-30T18:16:29.815Z,6.77
2018-12-30T18:19:00.093Z,6.33
2018-12-30T18:24:06.187Z,6.48
2018-12-30T18:26:37.965Z,6.62
2018-12-30T18:29:08.642Z,6.65
2018-12-30T18:31:38.830Z,6.73
2018-12-30T18:34:08.998Z,6.50
2018-12-30T18:36:39.258Z,6.52
2018-12-30T18:39:09.910Z,6.28
2018-12-30T18:41:40.188Z,6.50
2018-12-30T18:44:10.499Z,6.59
2018-12-30T18:46:40.710Z,6.77
2018-12-30T18:49:10.901Z,6.96
2018-12-30T18:51:41.199Z,6.77
2018-12-30T18:54:11.472Z,6.77
2018-12-30T18:56:41.630Z,6.62
2018-12-30T18:59:11.832Z,6.11
2018-12-30T19:01:42.092Z,5.82
2018-12-30T19:04:12.361Z,5.98
2018-12-30T19:06:42.537Z,6.32
2018-12-30T19:09:12.727Z,6.58
2018-12-30T19:11:42.995Z,6.62
2018-12-30T19:14:13.266Z,6.64
2018-12-30T19:16:43.450Z,6.53
2018-12-30T19:19:13.739Z,6.32
2018-12-30T19:21:43.927Z,6.48
2018-12-30T19:24:14.090Z,6.49
2018-12-30T19:26:44.358Z,6.50
2018-12-30T19:29:14.780Z,6.52
2018-12-30T19:31:45.115Z,6.58
2018-12-30T19:34:15.308Z,6.49
2018-12-30T19:36:45.594Z,6.37
2018-12-30T19:39:15.904Z,6.28
2018-12-30T19:41:46.092Z,6.38
2018-12-30T19:44:16.259Z,6.45
2018-12-30T19:46:46.540Z,6.51
2018-12-30T19:49:16.828Z,6.54
2018-12-30T19:54:36.156Z,6.57
2018-12-30T19:57:06.427Z,6.60
2018-12-30T19:59:36.632Z,5.71
2018-12-30T20:02:07.017Z,6.04
2018-12-30T20:04:40.821Z,6.17
2018-12-30T20:07:09.375Z,6.33
2018-12-30T20:09:39.644Z,6.33
2018-12-30T20:12:09.977Z,6.49
2018-12-30T20:14:40.253Z,6.56
2018-12-30T20:17:10.444Z,6.62
2018-12-30T20:19:40.645Z,6.70
2018-12-30T20:22:10.915Z,6.72
2018-12-30T20:24:41.189Z,6.80
2018-12-30T20:27:11.385Z,6.80
2018-12-30T20:29:41.562Z,6.85
2018-12-30T20:32:11.826Z,6.74
2018-12-30T20:34:42.123Z,6.66
2018-12-30T20:42:46.703Z,6.78
2018-12-30T20:45:16.989Z,6.80
2018-12-30T20:47:47.201Z,6.91
2018-12-30T20:50:17.379Z,6.69
2018-12-30T20:52:47.633Z,6.74
2018-12-30T20:55:17.946Z,6.78
2018-12-30T20:57:48.136Z,6.79
2018-12-30T21:00:18.323Z,6.93
2018-12-30T21:02:48.610Z,6.93
2018-12-30T21:05:18.878Z,6.97
2018-12-30T21:07:49.040Z,6.87
2018-12-30T21:10:19.214Z,6.84
2018-12-30T21:12:49.463Z,6.82
2018-12-30T21:15:19.740Z,6.80
2018-12-30T21:17:49.922Z,6.78
2018-12-30T21:20:20.314Z,6.75
2018-12-30T21:22:50.505Z,6.76
2018-12-30T21:25:20.702Z,6.76
2018-12-30T21:27:50.955Z,6.81
2018-12-30T21:30:21.216Z,6.74
2018-12-30T21:32:51.457Z,6.74
2018-12-30T21:35:21.643Z,6.74
2018-12-30T21:37:51.920Z,6.77
2018-12-30T21:40:22.194Z,6.75
2018-12-30T21:42:52.508Z,6.49
2018-12-30T21:45:22.674Z,6.48
2018-12-30T21:47:52.943Z,6.51
2018-12-30T21:50:23.223Z,6.68
2018-12-30T21:52:53.382Z,6.72
2018-12-30T21:55:23.579Z,6.68
2018-12-30T21:57:53.847Z,6.51
2018-12-30T22:00:24.093Z,5.89
2018-12-30T22:02:54.358Z,6.07
2018-12-30T22:05:24.617Z,6.38
2018-12-30T22:07:54.792Z,6.47
2018-12-30T22:10:24.960Z,6.46
2018-12-30T22:12:55.254Z,6.61
2018-12-30T22:15:25.537Z,6.61
2018-12-30T22:17:55.734Z,6.54
2018-12-30T22:20:25.992Z,6.47
2018-12-30T22:22:56.269Z,6.46
2018-12-30T22:25:26.555Z,6.39
2018-12-30T22:27:56.760Z,6.40
2018-12-30T22:30:26.936Z,6.19
2018-12-30T22:32:57.291Z,6.33
2018-12-30T22:35:27.566Z,6.21
2018-12-30T22:37:57.750Z,6.12
2018-12-30T22:40:28.020Z,6.16
2018-12-30T22:45:34.123Z,6.19
2018-12-30T22:48:04.486Z,6.38
2018-12-30T22:50:34.850Z,6.34
2018-12-30T22:53:05.105Z,6.32
2018-12-30T22:55:35.291Z,6.39
2018-12-30T22:58:05.544Z,6.32
2018-12-30T23:03:33.970Z,6.31
2018-12-30T23:06:04.230Z,6.37
2018-12-30T23:08:34.423Z,6.45
2018-12-30T23:11:04.672Z,6.33
2018-12-30T23:13:34.939Z,6.42
2018-12-30T23:16:05.097Z,6.32
2018-12-30T23:18:35.278Z,6.23
2018-12-30T23:21:05.536Z,6.24
2018-12-30T23:23:35.705Z,6.17
2018-12-30T23:26:05.977Z,6.00
2018-12-30T23:28:36.227Z,5.34
2018-12-30T23:31:06.399Z,5.17
2018-12-30T23:33:36.570Z,5.36
2018-12-30T23:36:06.835Z,5.47
2018-12-30T23:38:37.094Z,5.61
2018-12-30T23:41:07.273Z,5.90
2018-12-30T23:43:37.474Z,5.52
2018-12-30T23:46:07.807Z,5.09
2018-12-30T23:48:38.044Z,5.13
2018-12-30T23:51:08.243Z,4.55
2018-12-30T23:53:38.410Z,4.57
2018-12-30T23:56:08.686Z,5.14
2018-12-30T23:58:38.942Z,5.54
